createdAt,value
2022-11-13T00:00:19.052Z,32.00
2022-11-13T00:05:39.444Z,31.80
2022-11-13T00:11:01.971Z,31.80
2022-11-13T00:21:43.010Z,32.30
2022-11-13T00:27:03.547Z,32.30
2022-11-13T00:37:44.480Z,32.50
2022-11-13T00:48:26.293Z,32.60
2022-11-13T00:53:47.240Z,32.50
2022-11-13T00:59:07.759Z,32.50
2022-11-13T01:04:29.305Z,32.50
2022-11-13T01:09:50.804Z,32.40
2022-11-13T01:15:11.048Z,32.50
2022-11-13T01:20:32.979Z,32.30
2022-11-13T01:25:53.447Z,32.50
2022-11-13T01:31:26.236Z,32.50
2022-11-13T01:36:46.996Z,32.40
2022-11-13T01:42:07.452Z,32.30
2022-11-13T01:47:29.062Z,32.20
2022-11-13T01:52:49.266Z,32.10
2022-11-13T01:58:11.061Z,32.40
2022-11-13T02:03:31.416Z,32.00
2022-11-13T02:08:52.217Z,31.90
2022-11-13T02:14:14.752Z,31.80
2022-11-13T02:19:42.760Z,31.80
2022-11-13T02:25:04.822Z,31.90
2022-11-13T02:30:31.227Z,31.70
2022-11-13T02:35:51.965Z,31.70
2022-11-13T02:41:12.316Z,32.00
2022-11-13T02:46:33.529Z,32.10
2022-11-13T02:51:53.956Z,32.00
2022-11-13T02:57:14.325Z,32.00
2022-11-13T03:02:35.080Z,32.10
2022-11-13T03:13:16.061Z,31.70
2022-11-13T03:18:36.582Z,31.60
2022-11-13T03:29:17.703Z,32.60
2022-11-13T03:34:39.069Z,32.50
2022-11-13T03:39:59.474Z,32.40
2022-11-13T03:45:19.798Z,32.30
2022-11-13T03:50:45.676Z,32.70
2022-11-13T03:56:06.400Z,32.70
2022-11-13T04:01:26.833Z,32.60
2022-11-13T04:06:47.231Z,32.70
2022-11-13T04:12:07.652Z,32.80
2022-11-13T04:17:27.951Z,32.80
2022-11-13T04:22:48.424Z,32.90
2022-11-13T04:28:09.640Z,33.00
2022-11-13T04:38:50.485Z,33.10
2022-11-13T04:44:10.813Z,33.20
2022-11-13T04:49:31.364Z,33.40
2022-11-13T04:54:51.326Z,33.20
2022-11-13T05:05:32.601Z,33.30
2022-11-13T05:10:52.911Z,33.40
2022-11-13T05:16:14.822Z,33.50
2022-11-13T05:21:36.430Z,33.40
2022-11-13T05:26:56.902Z,33.40
2022-11-13T05:32:17.246Z,33.50
2022-11-13T05:42:58.449Z,33.60
2022-11-13T05:53:40.870Z,33.50
2022-11-13T05:59:02.894Z,33.40
2022-11-13T06:04:23.007Z,33.20
2022-11-13T06:09:43.283Z,33.30
2022-11-13T06:15:04.002Z,33.40
2022-11-13T06:20:24.350Z,33.40
2022-11-13T06:25:45.101Z,33.20
2022-11-13T06:31:11.963Z,33.20
2022-11-13T06:36:34.770Z,33.40
2022-11-13T06:47:16.171Z,33.30
2022-11-13T06:52:36.496Z,33.40
2022-11-13T07:03:20.464Z,33.20
2022-11-13T07:08:42.525Z,33.10
2022-11-13T07:14:02.907Z,33.10
2022-11-13T07:24:43.975Z,33.00
2022-11-13T07:30:04.845Z,32.80
2022-11-13T07:35:25.235Z,33.00
2022-11-13T07:40:45.613Z,33.20
2022-11-13T07:46:06.078Z,33.20
2022-11-13T07:51:26.454Z,33.60
2022-11-13T07:56:47.262Z,33.40
2022-11-13T08:02:13.778Z,33.50
2022-11-13T08:07:34.153Z,33.50
2022-11-13T08:13:03.476Z,33.20
2022-11-13T08:18:23.807Z,33.40
2022-11-13T08:23:44.056Z,31.30
2022-11-13T08:29:04.916Z,33.10
2022-11-13T08:34:25.005Z,33.20
2022-11-13T08:39:45.501Z,33.30
2022-11-13T08:45:06.644Z,33.00
2022-11-13T08:50:28.859Z,32.00
2022-11-13T08:55:48.928Z,31.70
2022-11-13T09:01:09.393Z,31.70
2022-11-13T09:06:29.883Z,32.50
2022-11-13T09:11:50.688Z,31.90
2022-11-13T09:17:11.125Z,31.80
2022-11-13T09:22:31.549Z,31.30
2022-11-13T09:27:53.941Z,32.60
2022-11-13T09:33:15.532Z,32.30
2022-11-13T09:38:35.760Z,31.80
2022-11-13T09:44:01.553Z,31.80
2022-11-13T09:49:30.062Z,31.90
2022-11-13T09:54:50.273Z,32.50
2022-11-13T10:01:03.227Z,32.10
2022-11-13T10:06:30.399Z,32.00
2022-11-13T10:12:03.148Z,31.90
2022-11-13T10:17:38.986Z,31.90
2022-11-13T10:23:17.048Z,32.10
2022-11-13T10:28:54.510Z,32.30
2022-11-13T10:34:16.204Z,32.40
2022-11-13T10:39:45.901Z,32.40
2022-11-13T10:45:17.915Z,32.00
2022-11-13T10:50:39.815Z,32.20
2022-11-13T10:56:00.626Z,32.00
2022-11-13T11:01:24.501Z,32.10
2022-11-13T11:12:30.945Z,31.20
2022-11-13T11:17:54.258Z,31.40
2022-11-13T11:23:33.099Z,30.90
2022-11-13T11:29:21.387Z,31.30
2022-11-13T11:34:53.728Z,30.80
2022-11-13T11:40:34.076Z,30.70
2022-11-13T11:45:54.471Z,30.20
2022-11-13T11:56:40.356Z,29.70
2022-11-13T12:02:38.442Z,29.90
2022-11-13T12:08:35.542Z,29.40
2022-11-13T12:13:55.571Z,28.90
2022-11-13T12:19:18.702Z,28.80
2022-11-13T12:24:47.499Z,28.30
2022-11-13T12:30:16.721Z,26.90
2022-11-13T12:35:39.518Z,26.80
2022-11-13T12:41:42.324Z,26.50
2022-11-13T12:47:02.595Z,25.10
2022-11-13T12:52:24.440Z,25.20
2022-11-13T12:57:48.260Z,25.10
2022-11-13T13:03:44.525Z,23.90
2022-11-13T13:09:37.174Z,22.90
2022-11-13T13:15:06.841Z,23.80
2022-11-13T13:20:37.993Z,22.80
2022-11-13T13:26:14.791Z,23.20
2022-11-13T13:31:56.348Z,21.00
2022-11-13T13:37:38.108Z,20.90
2022-11-13T13:42:58.357Z,20.60
2022-11-13T13:48:23.979Z,19.90
2022-11-13T13:53:44.491Z,19.10
2022-11-13T13:59:05.301Z,19.00
2022-11-13T14:04:33.900Z,18.70
2022-11-13T14:10:07.127Z,17.60
2022-11-13T14:15:32.087Z,17.90
2022-11-13T14:20:56.037Z,17.20
2022-11-13T14:26:17.942Z,17.00
2022-11-13T14:37:23.168Z,18.10
2022-11-13T14:42:45.687Z,17.90
2022-11-13T14:48:26.140Z,18.00
2022-11-13T14:53:58.423Z,18.70
2022-11-13T14:59:27.077Z,19.10
2022-11-13T15:04:47.445Z,18.70
2022-11-13T15:10:14.683Z,19.10
2022-11-13T15:15:35.043Z,19.30
2022-11-13T15:20:55.480Z,20.60
2022-11-13T15:26:15.900Z,19.90
2022-11-13T15:31:40.247Z,20.00
2022-11-13T15:37:00.924Z,20.20
2022-11-13T15:42:29.735Z,20.30
2022-11-13T15:47:49.909Z,20.50
2022-11-13T15:53:14.074Z,20.70
2022-11-13T16:03:58.004Z,21.30
2022-11-13T16:09:18.138Z,21.10
2022-11-13T16:14:39.987Z,21.40
2022-11-13T16:20:00.327Z,21.50
2022-11-13T16:25:22.011Z,22.00
2022-11-13T16:30:43.057Z,21.60
2022-11-13T16:36:05.104Z,22.50
2022-11-13T16:41:27.159Z,22.20
2022-11-13T16:46:49.531Z,22.80
2022-11-13T16:52:09.963Z,22.50
2022-11-13T17:02:54.817Z,22.90
2022-11-13T17:08:15.155Z,23.60
2022-11-13T17:18:56.582Z,23.10
2022-11-13T17:24:17.017Z,23.40
2022-11-13T17:29:38.584Z,23.50
2022-11-13T17:34:58.938Z,24.00
2022-11-13T17:40:19.918Z,23.90
2022-11-13T17:45:40.966Z,23.70
2022-11-13T17:51:05.373Z,23.80
2022-11-13T17:56:25.635Z,23.90
2022-11-13T18:01:46.040Z,24.80
2022-11-13T18:07:06.860Z,24.80
2022-11-13T18:12:27.837Z,25.50
2022-11-13T18:17:48.309Z,25.20
2022-11-13T18:23:08.765Z,25.20
2022-11-13T18:28:29.208Z,25.50
2022-11-13T18:33:49.727Z,25.70
2022-11-13T18:39:16.180Z,25.60
2022-11-13T18:49:58.275Z,25.50
2022-11-13T18:55:18.538Z,25.80
2022-11-13T19:00:38.947Z,25.40
2022-11-13T19:11:20.503Z,25.80
2022-11-13T19:16:41.055Z,26.10
2022-11-13T19:22:01.003Z,26.10
2022-11-13T19:27:21.476Z,26.00
2022-11-13T19:32:41.805Z,26.30
2022-11-13T19:38:02.574Z,26.30
2022-11-13T19:43:22.905Z,26.10
2022-11-13T19:48:45.102Z,26.10
2022-11-13T20:04:46.578Z,26.40
2022-11-13T20:10:07.415Z,26.30
2022-11-13T20:15:27.796Z,26.40
2022-11-13T20:20:54.266Z,26.60
2022-11-13T20:31:36.724Z,26.80
2022-11-13T20:36:57.078Z,26.80
2022-11-13T20:42:17.629Z,27.60
2022-11-13T20:47:37.937Z,27.00
2022-11-13T20:52:58.378Z,27.20
2022-11-13T20:58:18.680Z,27.10
2022-11-13T21:03:41.655Z,27.20
2022-11-13T21:09:03.532Z,27.20
2022-11-13T21:14:23.921Z,27.00
2022-11-13T21:25:05.475Z,28.30
2022-11-13T21:30:25.762Z,28.50
2022-11-13T21:35:46.187Z,28.60
2022-11-13T21:41:23.742Z,28.70
2022-11-13T21:46:45.617Z,29.20
2022-11-13T21:52:06.108Z,29.00
2022-11-13T21:57:27.128Z,29.40
2022-11-13T22:18:55.192Z,30.40
2022-11-13T22:24:15.706Z,30.50
2022-11-13T22:29:35.924Z,31.00
2022-11-13T22:34:56.858Z,31.10
2022-11-13T22:40:17.790Z,31.20
2022-11-13T22:45:38.144Z,31.20
2022-11-13T22:51:07.655Z,31.10
2022-11-13T22:56:31.099Z,31.10
2022-11-13T23:01:51.366Z,31.00
2022-11-13T23:07:11.638Z,31.10
2022-11-13T23:12:31.961Z,31.40
2022-11-13T23:17:52.259Z,31.40
2022-11-13T23:23:15.272Z,31.50
2022-11-13T23:28:36.360Z,31.40
2022-11-13T23:33:56.604Z,31.60
2022-11-13T23:39:16.964Z,31.80
2022-11-13T23:44:37.371Z,31.90
2022-11-13T23:49:57.685Z,32.10
2022-11-13T23:55:19.103Z,32.10
